sensor_id;sensor_type;location;lat;lon;timestamp;temperature;humidity
10249;DHT22;5169;50.560;9.714;2024-03-08T00:01:23;1.50;99.90
10249;DHT22;5169;50.560;9.714;2024-03-08T00:03:52;1.50;99.90
10249;DHT22;5169;50.560;9.714;2024-03-08T00:06:17;1.60;99.90
10249;DHT22;5169;50.560;9.714;2024-03-08T00:08:45;1.60;99.90
10249;DHT22;5169;50.560;9.714;2024-03-08T00:11:10;1.70;99.90
10249;DHT22;5169;50.560;9.714;2024-03-08T00:13:38;1.70;99.90
10249;DHT22;5169;50.560;9.714;2024-03-08T00:16:04;1.70;99.90
10249;DHT22;5169;50.560;9.714;2024-03-08T00:18:30;1.80;99.90
10249;DHT22;5169;50.560;9.714;2024-03-08T00:21:00;1.70;99.90
10249;DHT22;5169;50.560;9.714;2024-03-08T00:23:28;1.80;99.90
10249;DHT22;5169;50.560;9.714;2024-03-08T00:25:53;1.80;99.90
10249;DHT22;5169;50.560;9.714;2024-03-08T00:28:20;1.80;99.90
10249;DHT22;5169;50.560;9.714;2024-03-08T00:30:45;1.80;99.90
10249;DHT22;5169;50.560;9.714;2024-03-08T00:33:14;1.80;99.90
10249;DHT22;5169;50.560;9.714;2024-03-08T00:35:42;1.80;99.90
10249;DHT22;5169;50.560;9.714;2024-03-08T00:38:08;1.70;99.90
10249;DHT22;5169;50.560;9.714;2024-03-08T00:40:33;1.60;99.90
10249;DHT22;5169;50.560;9.714;2024-03-08T00:43:01;1.50;99.90
10249;DHT22;5169;50.560;9.714;2024-03-08T00:45:29;1.50;99.90
10249;DHT22;5169;50.560;9.714;2024-03-08T00:47:57;1.40;99.90
10249;DHT22;5169;50.560;9.714;2024-03-08T00:50:23;1.40;99.90
10249;DHT22;5169;50.560;9.714;2024-03-08T00:52:48;1.50;99.90
10249;DHT22;5169;50.560;9.714;2024-03-08T00:55:14;1.50;99.90
10249;DHT22;5169;50.560;9.714;2024-03-08T00:57:40;1.60;99.90
10249;DHT22;5169;50.560;9.714;2024-03-08T01:00:07;1.60;99.90
10249;DHT22;5169;50.560;9.714;2024-03-08T01:02:35;1.60;99.90
10249;DHT22;5169;50.560;9.714;2024-03-08T01:05:01;1.70;99.90
10249;DHT22;5169;50.560;9.714;2024-03-08T01:07:27;1.60;99.90
10249;DHT22;5169;50.560;9.714;2024-03-08T01:09:55;1.50;99.90
10249;DHT22;5169;50.560;9.714;2024-03-08T01:12:23;1.60;99.90
10249;DHT22;5169;50.560;9.714;2024-03-08T01:14:49;1.60;99.90
10249;DHT22;5169;50.560;9.714;2024-03-08T01:17:14;1.60;99.90
10249;DHT22;5169;50.560;9.714;2024-03-08T01:19:40;1.70;99.90
10249;DHT22;5169;50.560;9.714;2024-03-08T01:22:08;1.70;99.90
10249;DHT22;5169;50.560;9.714;2024-03-08T01:24:35;1.70;99.90
10249;DHT22;5169;50.560;9.714;2024-03-08T01:27:06;1.70;99.90
10249;DHT22;5169;50.560;9.714;2024-03-08T01:29:33;1.70;99.90
10249;DHT22;5169;50.560;9.714;2024-03-08T01:31:58;1.70;99.90
10249;DHT22;5169;50.560;9.714;2024-03-08T01:34:27;1.60;99.90
10249;DHT22;5169;50.560;9.714;2024-03-08T01:36:54;1.50;99.90
10249;DHT22;5169;50.560;9.714;2024-03-08T01:39:21;1.50;99.90
10249;DHT22;5169;50.560;9.714;2024-03-08T01:41:47;1.50;99.90
10249;DHT22;5169;50.560;9.714;2024-03-08T01:44:13;1.40;99.90
10249;DHT22;5169;50.560;9.714;2024-03-08T01:46:46;1.50;99.90
10249;DHT22;5169;50.560;9.714;2024-03-08T01:49:13;1.30;99.90
10249;DHT22;5169;50.560;9.714;2024-03-08T01:51:40;1.30;99.90
10249;DHT22;5169;50.560;9.714;2024-03-08T01:54:07;1.20;99.90
10249;DHT22;5169;50.560;9.714;2024-03-08T01:56:35;1.20;99.90
10249;DHT22;5169;50.560;9.714;2024-03-08T01:59:02;1.10;99.90
10249;DHT22;5169;50.560;9.714;2024-03-08T02:01:28;1.10;99.90
10249;DHT22;5169;50.560;9.714;2024-03-08T02:03:56;1.10;99.90
10249;DHT22;5169;50.560;9.714;2024-03-08T02:06:22;1.10;99.90
10249;DHT22;5169;50.560;9.714;2024-03-08T02:08:47;1.10;99.90
10249;DHT22;5169;50.560;9.714;2024-03-08T02:11:16;1.20;99.90
10249;DHT22;5169;50.560;9.714;2024-03-08T02:13:42;1.30;99.90
10249;DHT22;5169;50.560;9.714;2024-03-08T02:16:08;1.30;99.90
10249;DHT22;5169;50.560;9.714;2024-03-08T02:18:34;1.30;99.90
10249;DHT22;5169;50.560;9.714;2024-03-08T02:21:01;1.30;99.90
10249;DHT22;5169;50.560;9.714;2024-03-08T02:23:30;1.20;99.90
10249;DHT22;5169;50.560;9.714;2024-03-08T02:25:56;1.20;99.90
10249;DHT22;5169;50.560;9.714;2024-03-08T02:28:23;1.10;99.90
10249;DHT22;5169;50.560;9.714;2024-03-08T02:30:49;1.10;99.90
10249;DHT22;5169;50.560;9.714;2024-03-08T02:33:17;1.10;99.90
10249;DHT22;5169;50.560;9.714;2024-03-08T02:35:45;1.00;99.90
10249;DHT22;5169;50.560;9.714;2024-03-08T02:38:15;1.10;99.90
10249;DHT22;5169;50.560;9.714;2024-03-08T02:40:48;1.00;99.90
10249;DHT22;5169;50.560;9.714;2024-03-08T02:43:15;1.00;99.90
10249;DHT22;5169;50.560;9.714;2024-03-08T02:45:44;1.00;99.90
10249;DHT22;5169;50.560;9.714;2024-03-08T02:48:13;1.00;99.90
10249;DHT22;5169;50.560;9.714;2024-03-08T02:50:41;0.90;99.90
10249;DHT22;5169;50.560;9.714;2024-03-08T02:53:10;1.00;99.90
10249;DHT22;5169;50.560;9.714;2024-03-08T02:55:37;1.10;99.90
10249;DHT22;5169;50.560;9.714;2024-03-08T02:58:03;1.00;99.90
10249;DHT22;5169;50.560;9.714;2024-03-08T03:00:29;1.00;99.90
10249;DHT22;5169;50.560;9.714;2024-03-08T03:02:56;1.10;99.90
10249;DHT22;5169;50.560;9.714;2024-03-08T03:05:23;1.10;99.90
10249;DHT22;5169;50.560;9.714;2024-03-08T03:07:49;1.10;99.90
10249;DHT22;5169;50.560;9.714;2024-03-08T03:10:16;1.00;99.90
10249;DHT22;5169;50.560;9.714;2024-03-08T03:12:42;0.80;99.90
10249;DHT22;5169;50.560;9.714;2024-03-08T03:15:08;0.80;99.90
10249;DHT22;5169;50.560;9.714;2024-03-08T03:17:35;0.80;99.90
10249;DHT22;5169;50.560;9.714;2024-03-08T03:20:01;0.80;99.90
10249;DHT22;5169;50.560;9.714;2024-03-08T03:22:34;0.90;99.90
10249;DHT22;5169;50.560;9.714;2024-03-08T03:25:02;0.90;99.90
10249;DHT22;5169;50.560;9.714;2024-03-08T03:27:29;0.90;99.90
10249;DHT22;5169;50.560;9.714;2024-03-08T03:29:56;0.90;99.90
10249;DHT22;5169;50.560;9.714;2024-03-08T03:32:23;0.80;99.90
10249;DHT22;5169;50.560;9.714;2024-03-08T03:34:49;0.90;99.90
10249;DHT22;5169;50.560;9.714;2024-03-08T03:37:18;0.90;99.90
10249;DHT22;5169;50.560;9.714;2024-03-08T03:39:45;1.00;99.90
10249;DHT22;5169;50.560;9.714;2024-03-08T03:42:17;1.00;99.90
10249;DHT22;5169;50.560;9.714;2024-03-08T03:44:47;1.00;99.90
10249;DHT22;5169;50.560;9.714;2024-03-08T03:47:13;1.00;99.90
10249;DHT22;5169;50.560;9.714;2024-03-08T03:49:40;1.10;99.90
10249;DHT22;5169;50.560;9.714;2024-03-08T03:52:06;1.00;99.90
10249;DHT22;5169;50.560;9.714;2024-03-08T03:54:31;1.10;99.90
10249;DHT22;5169;50.560;9.714;2024-03-08T03:56:58;1.10;99.90
10249;DHT22;5169;50.560;9.714;2024-03-08T03:59:24;1.10;99.90
10249;DHT22;5169;50.560;9.714;2024-03-08T04:01:50;1.00;99.90
10249;DHT22;5169;50.560;9.714;2024-03-08T04:04:15;1.00;99.90
10249;DHT22;5169;50.560;9.714;2024-03-08T04:06:41;0.90;99.90
10249;DHT22;5169;50.560;9.714;2024-03-08T04:09:07;0.90;99.90
10249;DHT22;5169;50.560;9.714;2024-03-08T04:11:33;0.80;99.90
10249;DHT22;5169;50.560;9.714;2024-03-08T04:13:58;0.80;99.90
10249;DHT22;5169;50.560;9.714;2024-03-08T04:16:24;0.70;99.90
10249;DHT22;5169;50.560;9.714;2024-03-08T04:18:51;0.70;99.90
10249;DHT22;5169;50.560;9.714;2024-03-08T04:21:19;0.70;99.90
10249;DHT22;5169;50.560;9.714;2024-03-08T04:23:47;0.70;99.90
10249;DHT22;5169;50.560;9.714;2024-03-08T04:26:13;0.80;99.90
10249;DHT22;5169;50.560;9.714;2024-03-08T04:28:38;0.90;99.90
10249;DHT22;5169;50.560;9.714;2024-03-08T04:31:05;1.00;99.90
10249;DHT22;5169;50.560;9.714;2024-03-08T04:33:30;1.00;99.90
10249;DHT22;5169;50.560;9.714;2024-03-08T04:36:01;0.90;99.90
10249;DHT22;5169;50.560;9.714;2024-03-08T04:38:26;0.90;99.90
10249;DHT22;5169;50.560;9.714;2024-03-08T04:40:52;0.90;99.90
10249;DHT22;5169;50.560;9.714;2024-03-08T04:43:17;0.90;99.90
10249;DHT22;5169;50.560;9.714;2024-03-08T04:45:44;0.80;99.90
10249;DHT22;5169;50.560;9.714;2024-03-08T04:48:10;0.80;99.90
10249;DHT22;5169;50.560;9.714;2024-03-08T04:50:36;0.80;99.90
10249;DHT22;5169;50.560;9.714;2024-03-08T04:53:03;0.80;99.90
10249;DHT22;5169;50.560;9.714;2024-03-08T04:55:30;0.80;99.90
10249;DHT22;5169;50.560;9.714;2024-03-08T04:57:57;0.80;99.90
10249;DHT22;5169;50.560;9.714;2024-03-08T05:00:23;0.80;99.90
10249;DHT22;5169;50.560;9.714;2024-03-08T05:02:51;0.70;99.90
10249;DHT22;5169;50.560;9.714;2024-03-08T05:05:18;0.80;99.90
10249;DHT22;5169;50.560;9.714;2024-03-08T05:07:44;0.70;99.90
10249;DHT22;5169;50.560;9.714;2024-03-08T05:10:11;0.60;99.90
10249;DHT22;5169;50.560;9.714;2024-03-08T05:12:37;0.50;99.90
10249;DHT22;5169;50.560;9.714;2024-03-08T05:15:05;0.40;99.90
10249;DHT22;5169;50.560;9.714;2024-03-08T05:17:30;0.40;99.90
10249;DHT22;5169;50.560;9.714;2024-03-08T05:19:56;0.50;99.90
10249;DHT22;5169;50.560;9.714;2024-03-08T05:22:24;0.40;99.90
10249;DHT22;5169;50.560;9.714;2024-03-08T05:24:51;0.40;99.90
10249;DHT22;5169;50.560;9.714;2024-03-08T05:27:19;0.40;99.90
10249;DHT22;5169;50.560;9.714;2024-03-08T05:29:44;0.40;99.90
10249;DHT22;5169;50.560;9.714;2024-03-08T05:32:11;0.40;99.90
10249;DHT22;5169;50.560;9.714;2024-03-08T05:34:37;0.40;99.90
10249;DHT22;5169;50.560;9.714;2024-03-08T05:37:03;0.40;99.90
10249;DHT22;5169;50.560;9.714;2024-03-08T05:39:29;0.40;99.90
10249;DHT22;5169;50.560;9.714;2024-03-08T05:41:54;0.40;99.90
10249;DHT22;5169;50.560;9.714;2024-03-08T05:44:20;0.40;99.90
10249;DHT22;5169;50.560;9.714;2024-03-08T05:46:48;0.40;99.90
10249;DHT22;5169;50.560;9.714;2024-03-08T05:49:14;0.50;99.90
10249;DHT22;5169;50.560;9.714;2024-03-08T05:51:42;0.50;99.90
10249;DHT22;5169;50.560;9.714;2024-03-08T05:54:11;0.50;99.90
10249;DHT22;5169;50.560;9.714;2024-03-08T05:56:42;0.60;99.90
10249;DHT22;5169;50.560;9.714;2024-03-08T05:59:14;0.60;99.90
10249;DHT22;5169;50.560;9.714;2024-03-08T06:01:39;0.60;99.90
10249;DHT22;5169;50.560;9.714;2024-03-08T06:04:06;0.80;99.90
10249;DHT22;5169;50.560;9.714;2024-03-08T06:06:32;0.80;99.90
10249;DHT22;5169;50.560;9.714;2024-03-08T06:09:02;0.90;99.90
10249;DHT22;5169;50.560;9.714;2024-03-08T06:11:34;1.00;99.90
10249;DHT22;5169;50.560;9.714;2024-03-08T06:14:00;0.90;99.90
10249;DHT22;5169;50.560;9.714;2024-03-08T06:16:26;1.00;99.90
10249;DHT22;5169;50.560;9.714;2024-03-08T06:18:57;1.10;99.90
10249;DHT22;5169;50.560;9.714;2024-03-08T06:21:26;1.10;99.90
10249;DHT22;5169;50.560;9.714;2024-03-08T06:23:55;1.10;99.90
10249;DHT22;5169;50.560;9.714;2024-03-08T06:26:26;1.20;99.90
10249;DHT22;5169;50.560;9.714;2024-03-08T06:28:58;1.40;99.90
10249;DHT22;5169;50.560;9.714;2024-03-08T06:31:24;1.50;99.90
10249;DHT22;5169;50.560;9.714;2024-03-08T06:33:49;1.30;99.90
10249;DHT22;5169;50.560;9.714;2024-03-08T06:36:18;1.30;99.90
10249;DHT22;5169;50.560;9.714;2024-03-08T06:38:47;1.30;99.90
10249;DHT22;5169;50.560;9.714;2024-03-08T06:41:15;1.40;99.90
10249;DHT22;5169;50.560;9.714;2024-03-08T06:43:44;1.50;99.90
10249;DHT22;5169;50.560;9.714;2024-03-08T06:46:14;1.50;99.90
10249;DHT22;5169;50.560;9.714;2024-03-08T06:48:40;1.60;99.90
10249;DHT22;5169;50.560;9.714;2024-03-08T06:51:06;1.80;99.90
10249;DHT22;5169;50.560;9.714;2024-03-08T06:53:32;2.00;99.90
10249;DHT22;5169;50.560;9.714;2024-03-08T06:56:01;2.20;99.90
10249;DHT22;5169;50.560;9.714;2024-03-08T06:58:27;2.30;99.90
10249;DHT22;5169;50.560;9.714;2024-03-08T07:00:53;2.40;99.90
10249;DHT22;5169;50.560;9.714;2024-03-08T07:03:21;2.60;99.90
10249;DHT22;5169;50.560;9.714;2024-03-08T07:05:47;2.90;99.90
10249;DHT22;5169;50.560;9.714;2024-03-08T07:08:15;3.20;99.90
10249;DHT22;5169;50.560;9.714;2024-03-08T07:10:42;3.50;99.90
10249;DHT22;5169;50.560;9.714;2024-03-08T07:13:08;3.70;99.90
10249;DHT22;5169;50.560;9.714;2024-03-08T07:15:36;3.90;99.90
10249;DHT22;5169;50.560;9.714;2024-03-08T07:18:05;4.10;99.90
10249;DHT22;5169;50.560;9.714;2024-03-08T07:20:31;4.30;99.90
10249;DHT22;5169;50.560;9.714;2024-03-08T07:22:56;4.20;99.90
10249;DHT22;5169;50.560;9.714;2024-03-08T07:25:22;4.20;99.90
10249;DHT22;5169;50.560;9.714;2024-03-08T07:27:53;4.20;99.90
10249;DHT22;5169;50.560;9.714;2024-03-08T07:30:27;4.20;99.90
10249;DHT22;5169;50.560;9.714;2024-03-08T07:33:11;4.30;99.90
10249;DHT22;5169;50.560;9.714;2024-03-08T07:35:40;4.40;99.90
10249;DHT22;5169;50.560;9.714;2024-03-08T07:38:09;4.60;99.90
10249;DHT22;5169;50.560;9.714;2024-03-08T07:40:39;4.60;99.90
10249;DHT22;5169;50.560;9.714;2024-03-08T07:43:07;4.60;99.90
10249;DHT22;5169;50.560;9.714;2024-03-08T07:45:35;4.90;99.90
10249;DHT22;5169;50.560;9.714;2024-03-08T07:48:01;4.90;99.90
10249;DHT22;5169;50.560;9.714;2024-03-08T07:50:30;5.00;99.90
10249;DHT22;5169;50.560;9.714;2024-03-08T07:52:58;5.20;99.90
10249;DHT22;5169;50.560;9.714;2024-03-08T07:55:23;5.50;99.90
10249;DHT22;5169;50.560;9.714;2024-03-08T07:57:52;5.70;99.90
10249;DHT22;5169;50.560;9.714;2024-03-08T08:00:20;5.80;99.90
10249;DHT22;5169;50.560;9.714;2024-03-08T08:02:49;6.20;99.90
10249;DHT22;5169;50.560;9.714;2024-03-08T08:05:17;6.40;99.90
10249;DHT22;5169;50.560;9.714;2024-03-08T08:07:46;6.70;99.90
10249;DHT22;5169;50.560;9.714;2024-03-08T08:10:13;6.80;99.90
10249;DHT22;5169;50.560;9.714;2024-03-08T08:12:48;7.00;99.90
10249;DHT22;5169;50.560;9.714;2024-03-08T08:15:14;7.00;99.90
10249;DHT22;5169;50.560;9.714;2024-03-08T08:17:44;6.90;99.90
10249;DHT22;5169;50.560;9.714;2024-03-08T08:20:13;6.90;99.90
10249;DHT22;5169;50.560;9.714;2024-03-08T08:22:39;7.00;99.90
10249;DHT22;5169;50.560;9.714;2024-03-08T08:25:11;6.90;99.90
10249;DHT22;5169;50.560;9.714;2024-03-08T08:27:38;7.00;99.90
10249;DHT22;5169;50.560;9.714;2024-03-08T08:30:05;7.30;99.90
10249;DHT22;5169;50.560;9.714;2024-03-08T08:32:37;7.50;99.90
10249;DHT22;5169;50.560;9.714;2024-03-08T08:35:07;7.70;99.90
10249;DHT22;5169;50.560;9.714;2024-03-08T08:37:39;7.90;99.90
10249;DHT22;5169;50.560;9.714;2024-03-08T08:40:05;8.40;99.90
10249;DHT22;5169;50.560;9.714;2024-03-08T08:42:35;8.70;99.90
10249;DHT22;5169;50.560;9.714;2024-03-08T08:45:01;9.20;99.90
10249;DHT22;5169;50.560;9.714;2024-03-08T08:47:29;9.40;98.70
10249;DHT22;5169;50.560;9.714;2024-03-08T08:49:57;9.90;98.90
10249;DHT22;5169;50.560;9.714;2024-03-08T08:52:22;9.70;97.60
10249;DHT22;5169;50.560;9.714;2024-03-08T08:54:48;9.50;97.90
10249;DHT22;5169;50.560;9.714;2024-03-08T08:57:17;9.30;98.20
10249;DHT22;5169;50.560;9.714;2024-03-08T08:59:43;9.30;98.70
10249;DHT22;5169;50.560;9.714;2024-03-08T09:02:09;9.30;98.30
10249;DHT22;5169;50.560;9.714;2024-03-08T09:04:34;9.40;97.50
10249;DHT22;5169;50.560;9.714;2024-03-08T09:07:03;9.30;98.30
10249;DHT22;5169;50.560;9.714;2024-03-08T09:09:32;9.10;98.80
10249;DHT22;5169;50.560;9.714;2024-03-08T09:12:00;9.10;98.50
10249;DHT22;5169;50.560;9.714;2024-03-08T09:14:28;9.10;98.30
10249;DHT22;5169;50.560;9.714;2024-03-08T09:16:53;9.40;98.40
10249;DHT22;5169;50.560;9.714;2024-03-08T09:19:19;9.50;97.80
10249;DHT22;5169;50.560;9.714;2024-03-08T09:21:47;9.30;98.00
10249;DHT22;5169;50.560;9.714;2024-03-08T09:24:13;9.40;98.40
10249;DHT22;5169;50.560;9.714;2024-03-08T09:26:41;9.40;97.80
10249;DHT22;5169;50.560;9.714;2024-03-08T09:29:11;9.30;98.00
10249;DHT22;5169;50.560;9.714;2024-03-08T09:31:38;9.40;97.90
10249;DHT22;5169;50.560;9.714;2024-03-08T09:34:04;9.80;96.90
10249;DHT22;5169;50.560;9.714;2024-03-08T09:36:33;9.40;97.60
10249;DHT22;5169;50.560;9.714;2024-03-08T09:38:58;9.40;98.80
10249;DHT22;5169;50.560;9.714;2024-03-08T09:41:24;9.40;97.40
10249;DHT22;5169;50.560;9.714;2024-03-08T09:43:49;9.50;97.70
10249;DHT22;5169;50.560;9.714;2024-03-08T09:46:16;9.80;98.40
10249;DHT22;5169;50.560;9.714;2024-03-08T09:48:44;10.30;96.80
10249;DHT22;5169;50.560;9.714;2024-03-08T09:51:14;10.40;96.10
10249;DHT22;5169;50.560;9.714;2024-03-08T09:53:41;10.20;96.00
10249;DHT22;5169;50.560;9.714;2024-03-08T09:56:08;9.90;96.90
10249;DHT22;5169;50.560;9.714;2024-03-08T09:58:37;10.10;96.90
10249;DHT22;5169;50.560;9.714;2024-03-08T10:01:21;10.50;96.70
10249;DHT22;5169;50.560;9.714;2024-03-08T10:03:47;10.50;96.30
10249;DHT22;5169;50.560;9.714;2024-03-08T10:06:15;10.40;97.00
10249;DHT22;5169;50.560;9.714;2024-03-08T10:08:43;10.70;95.30
10249;DHT22;5169;50.560;9.714;2024-03-08T10:11:10;11.00;96.00
10249;DHT22;5169;50.560;9.714;2024-03-08T10:13:38;11.80;95.20
10249;DHT22;5169;50.560;9.714;2024-03-08T10:16:07;12.00;94.10
10249;DHT22;5169;50.560;9.714;2024-03-08T10:18:33;11.90;92.90
10249;DHT22;5169;50.560;9.714;2024-03-08T10:21:06;11.50;94.10
10249;DHT22;5169;50.560;9.714;2024-03-08T10:23:33;11.90;93.40
10249;DHT22;5169;50.560;9.714;2024-03-08T10:26:09;12.20;93.20
10249;DHT22;5169;50.560;9.714;2024-03-08T10:28:44;13.40;91.50
10249;DHT22;5169;50.560;9.714;2024-03-08T10:31:09;13.90;90.40
10249;DHT22;5169;50.560;9.714;2024-03-08T10:33:37;13.10;90.90
10249;DHT22;5169;50.560;9.714;2024-03-08T10:36:10;13.80;90.30
10249;DHT22;5169;50.560;9.714;2024-03-08T10:38:40;14.30;89.10
10249;DHT22;5169;50.560;9.714;2024-03-08T10:41:13;15.10;87.40
10249;DHT22;5169;50.560;9.714;2024-03-08T10:46:30;14.60;82.10
10249;DHT22;5169;50.560;9.714;2024-03-08T10:49:00;15.10;82.40
10249;DHT22;5169;50.560;9.714;2024-03-08T10:51:31;15.40;82.40
10249;DHT22;5169;50.560;9.714;2024-03-08T10:53:59;16.20;80.20
10249;DHT22;5169;50.560;9.714;2024-03-08T10:56:28;16.90;75.80
10249;DHT22;5169;50.560;9.714;2024-03-08T10:58:54;17.80;73.40
10249;DHT22;5169;50.560;9.714;2024-03-08T11:01:21;18.50;69.50
10249;DHT22;5169;50.560;9.714;2024-03-08T11:03:49;18.40;66.80
10249;DHT22;5169;50.560;9.714;2024-03-08T11:06:23;18.20;66.00
10249;DHT22;5169;50.560;9.714;2024-03-08T11:08:57;18.50;64.80
10249;DHT22;5169;50.560;9.714;2024-03-08T11:11:28;18.90;63.10
10249;DHT22;5169;50.560;9.714;2024-03-08T11:13:57;18.50;63.90
10249;DHT22;5169;50.560;9.714;2024-03-08T11:19:00;18.50;65.10
10249;DHT22;5169;50.560;9.714;2024-03-08T11:21:36;18.60;61.50
10249;DHT22;5169;50.560;9.714;2024-03-08T11:24:13;17.70;65.10
10249;DHT22;5169;50.560;9.714;2024-03-08T11:26:39;18.20;61.80
10249;DHT22;5169;50.560;9.714;2024-03-08T11:32:15;18.60;63.00
10249;DHT22;5169;50.560;9.714;2024-03-08T11:34:51;18.70;63.00
10249;DHT22;5169;50.560;9.714;2024-03-08T11:37:21;18.30;60.70
10249;DHT22;5169;50.560;9.714;2024-03-08T11:39:54;19.10;59.20
10249;DHT22;5169;50.560;9.714;2024-03-08T11:42:24;19.00;59.20
10249;DHT22;5169;50.560;9.714;2024-03-08T11:44:52;18.80;59.30
10249;DHT22;5169;50.560;9.714;2024-03-08T11:47:20;19.40;58.40
10249;DHT22;5169;50.560;9.714;2024-03-08T11:49:46;18.60;59.70
10249;DHT22;5169;50.560;9.714;2024-03-08T11:52:17;18.30;61.10
10249;DHT22;5169;50.560;9.714;2024-03-08T11:54:56;19.20;60.90
10249;DHT22;5169;50.560;9.714;2024-03-08T11:57:24;19.40;58.20
10249;DHT22;5169;50.560;9.714;2024-03-08T11:59:54;18.90;58.50
10249;DHT22;5169;50.560;9.714;2024-03-08T12:02:22;18.80;57.90
10249;DHT22;5169;50.560;9.714;2024-03-08T12:04:59;18.60;58.40
10249;DHT22;5169;50.560;9.714;2024-03-08T12:07:25;18.80;58.80
10249;DHT22;5169;50.560;9.714;2024-03-08T12:10:15;18.70;57.70
10249;DHT22;5169;50.560;9.714;2024-03-08T12:12:57;18.00;59.20
10249;DHT22;5169;50.560;9.714;2024-03-08T12:15:25;18.50;58.70
10249;DHT22;5169;50.560;9.714;2024-03-08T12:17:52;18.20;58.30
10249;DHT22;5169;50.560;9.714;2024-03-08T12:22:47;18.30;58.40
10249;DHT22;5169;50.560;9.714;2024-03-08T12:25:15;18.20;59.00
10249;DHT22;5169;50.560;9.714;2024-03-08T12:27:44;18.60;58.70
10249;DHT22;5169;50.560;9.714;2024-03-08T12:32:57;18.50;57.60
10249;DHT22;5169;50.560;9.714;2024-03-08T12:35:26;18.30;58.70
10249;DHT22;5169;50.560;9.714;2024-03-08T12:37:58;17.70;58.40
10249;DHT22;5169;50.560;9.714;2024-03-08T12:40:30;17.10;59.80
10249;DHT22;5169;50.560;9.714;2024-03-08T12:42:57;17.90;59.30
10249;DHT22;5169;50.560;9.714;2024-03-08T12:45:25;18.10;58.20
10249;DHT22;5169;50.560;9.714;2024-03-08T12:47:55;17.00;61.30
10249;DHT22;5169;50.560;9.714;2024-03-08T12:50:24;17.00;61.60
10249;DHT22;5169;50.560;9.714;2024-03-08T12:52:52;17.90;59.50
10249;DHT22;5169;50.560;9.714;2024-03-08T12:55:21;18.10;59.00
10249;DHT22;5169;50.560;9.714;2024-03-08T12:57:46;17.50;58.00
10249;DHT22;5169;50.560;9.714;2024-03-08T13:00:14;17.20;58.80
10249;DHT22;5169;50.560;9.714;2024-03-08T13:02:53;17.40;59.70
10249;DHT22;5169;50.560;9.714;2024-03-08T13:05:21;17.50;59.90
10249;DHT22;5169;50.560;9.714;2024-03-08T13:07:47;18.10;57.50
10249;DHT22;5169;50.560;9.714;2024-03-08T13:10:13;18.50;56.60
10249;DHT22;5169;50.560;9.714;2024-03-08T13:12:43;18.60;56.00
10249;DHT22;5169;50.560;9.714;2024-03-08T13:15:12;18.30;56.20
10249;DHT22;5169;50.560;9.714;2024-03-08T13:17:46;18.10;57.50
10249;DHT22;5169;50.560;9.714;2024-03-08T13:20:13;18.10;57.10
10249;DHT22;5169;50.560;9.714;2024-03-08T13:22:42;18.70;57.30
10249;DHT22;5169;50.560;9.714;2024-03-08T13:25:08;17.90;56.50
10249;DHT22;5169;50.560;9.714;2024-03-08T13:27:39;17.20;57.60
10249;DHT22;5169;50.560;9.714;2024-03-08T13:30:09;17.40;58.80
10249;DHT22;5169;50.560;9.714;2024-03-08T13:32:42;17.50;58.60
10249;DHT22;5169;50.560;9.714;2024-03-08T13:35:13;17.60;58.50
10249;DHT22;5169;50.560;9.714;2024-03-08T13:37:42;17.70;58.70
10249;DHT22;5169;50.560;9.714;2024-03-08T13:40:10;18.40;57.20
10249;DHT22;5169;50.560;9.714;2024-03-08T13:42:42;18.30;56.90
10249;DHT22;5169;50.560;9.714;2024-03-08T13:45:13;18.30;57.70
10249;DHT22;5169;50.560;9.714;2024-03-08T13:47:45;17.30;58.50
10249;DHT22;5169;50.560;9.714;2024-03-08T13:50:11;16.10;61.00
10249;DHT22;5169;50.560;9.714;2024-03-08T13:52:38;15.00;64.30
10249;DHT22;5169;50.560;9.714;2024-03-08T13:55:06;14.30;65.90
10249;DHT22;5169;50.560;9.714;2024-03-08T13:57:34;13.30;69.10
10249;DHT22;5169;50.560;9.714;2024-03-08T14:00:00;13.00;71.60
10249;DHT22;5169;50.560;9.714;2024-03-08T14:02:29;12.60;72.40
10249;DHT22;5169;50.560;9.714;2024-03-08T14:04:59;12.40;74.30
10249;DHT22;5169;50.560;9.714;2024-03-08T14:07:27;12.10;74.50
10249;DHT22;5169;50.560;9.714;2024-03-08T14:09:54;12.10;74.30
10249;DHT22;5169;50.560;9.714;2024-03-08T14:12:20;12.00;74.10
10249;DHT22;5169;50.560;9.714;2024-03-08T14:14:45;12.00;74.90
10249;DHT22;5169;50.560;9.714;2024-03-08T14:17:11;12.00;75.00
10249;DHT22;5169;50.560;9.714;2024-03-08T14:19:42;11.90;75.50
10249;DHT22;5169;50.560;9.714;2024-03-08T14:22:10;11.80;79.50
10249;DHT22;5169;50.560;9.714;2024-03-08T14:24:43;11.80;80.10
10249;DHT22;5169;50.560;9.714;2024-03-08T14:27:13;11.80;81.40
10249;DHT22;5169;50.560;9.714;2024-03-08T14:29:42;11.90;81.90
10249;DHT22;5169;50.560;9.714;2024-03-08T14:32:11;11.80;80.50
10249;DHT22;5169;50.560;9.714;2024-03-08T14:34:39;11.50;81.50
10249;DHT22;5169;50.560;9.714;2024-03-08T14:37:05;11.50;82.80
10249;DHT22;5169;50.560;9.714;2024-03-08T14:39:36;11.40;80.20
10249;DHT22;5169;50.560;9.714;2024-03-08T14:42:04;11.50;81.70
10249;DHT22;5169;50.560;9.714;2024-03-08T14:44:33;11.50;81.70
10249;DHT22;5169;50.560;9.714;2024-03-08T14:46:59;11.10;82.50
10249;DHT22;5169;50.560;9.714;2024-03-08T14:49:25;10.90;83.40
10249;DHT22;5169;50.560;9.714;2024-03-08T14:52:01;10.80;84.00
10249;DHT22;5169;50.560;9.714;2024-03-08T14:54:30;10.80;83.80
10249;DHT22;5169;50.560;9.714;2024-03-08T14:56:56;10.80;83.90
10249;DHT22;5169;50.560;9.714;2024-03-08T14:59:22;10.70;83.30
10249;DHT22;5169;50.560;9.714;2024-03-08T15:01:48;10.60;84.80
10249;DHT22;5169;50.560;9.714;2024-03-08T15:04:13;10.50;85.40
10249;DHT22;5169;50.560;9.714;2024-03-08T15:06:43;10.60;84.90
10249;DHT22;5169;50.560;9.714;2024-03-08T15:09:15;10.60;85.10
10249;DHT22;5169;50.560;9.714;2024-03-08T15:11:47;10.70;85.50
10249;DHT22;5169;50.560;9.714;2024-03-08T15:14:15;10.60;86.00
10249;DHT22;5169;50.560;9.714;2024-03-08T15:16:41;10.60;85.10
10249;DHT22;5169;50.560;9.714;2024-03-08T15:19:09;10.60;85.10
10249;DHT22;5169;50.560;9.714;2024-03-08T15:21:38;10.60;84.40
10249;DHT22;5169;50.560;9.714;2024-03-08T15:24:03;10.70;84.80
10249;DHT22;5169;50.560;9.714;2024-03-08T15:26:30;10.60;84.60
10249;DHT22;5169;50.560;9.714;2024-03-08T15:28:56;10.50;85.00
10249;DHT22;5169;50.560;9.714;2024-03-08T15:31:25;10.40;85.10
10249;DHT22;5169;50.560;9.714;2024-03-08T15:33:51;10.40;86.30
10249;DHT22;5169;50.560;9.714;2024-03-08T15:36:24;10.40;85.00
10249;DHT22;5169;50.560;9.714;2024-03-08T15:38:53;10.40;86.70
10249;DHT22;5169;50.560;9.714;2024-03-08T15:41:19;10.40;85.80
10249;DHT22;5169;50.560;9.714;2024-03-08T15:43:46;10.30;86.20
10249;DHT22;5169;50.560;9.714;2024-03-08T15:46:15;10.20;87.20
10249;DHT22;5169;50.560;9.714;2024-03-08T15:48:40;10.20;86.50
10249;DHT22;5169;50.560;9.714;2024-03-08T15:51:08;10.20;87.60
10249;DHT22;5169;50.560;9.714;2024-03-08T15:53:37;10.20;88.90
10249;DHT22;5169;50.560;9.714;2024-03-08T15:56:05;10.10;87.00
10249;DHT22;5169;50.560;9.714;2024-03-08T15:58:34;10.20;88.50
10249;DHT22;5169;50.560;9.714;2024-03-08T16:01:03;10.10;88.90
10249;DHT22;5169;50.560;9.714;2024-03-08T16:03:32;10.10;88.90
10249;DHT22;5169;50.560;9.714;2024-03-08T16:05:58;9.90;87.90
10249;DHT22;5169;50.560;9.714;2024-03-08T16:08:24;9.90;89.40
10249;DHT22;5169;50.560;9.714;2024-03-08T16:10:52;9.80;88.50
10249;DHT22;5169;50.560;9.714;2024-03-08T16:13:25;9.80;89.10